sensor_id;sensor_type;location;lat;lon;timestamp;pressure;altitude;pressure_sealevel;temperature;humidity
30338;BME280;17143;51.888;5.408;2023-04-08T00:06:02;102100.91;;;9.89;100.00
30338;BME280;17143;51.888;5.408;2023-04-08T00:21:05;102101.00;;;9.79;100.00
30338;BME280;17143;51.888;5.408;2023-04-08T00:36:08;102106.81;;;9.65;100.00
30338;BME280;17143;51.888;5.408;2023-04-08T00:51:10;102108.69;;;9.56;100.00
30338;BME280;17143;51.888;5.408;2023-04-08T01:06:19;102110.94;;;9.51;100.00
30338;BME280;17143;51.888;5.408;2023-04-08T01:21:24;102118.41;;;9.47;100.00
30338;BME280;17143;51.888;5.408;2023-04-08T01:36:27;102121.41;;;9.19;100.00
30338;BME280;17143;51.888;5.408;2023-04-08T01:51:32;102131.66;;;8.96;100.00
30338;BME280;17143;51.888;5.408;2023-04-08T02:06:35;102132.31;;;8.62;100.00
30338;BME280;17143;51.888;5.408;2023-04-08T02:21:42;102137.25;;;8.19;100.00
30338;BME280;17143;51.888;5.408;2023-04-08T02:36:45;102139.75;;;8.17;100.00
30338;BME280;17143;51.888;5.408;2023-04-08T02:51:47;102153.38;;;8.05;100.00
30338;BME280;17143;51.888;5.408;2023-04-08T03:06:49;102157.41;;;8.01;100.00
30338;BME280;17143;51.888;5.408;2023-04-08T03:21:51;102160.38;;;8.06;100.00
30338;BME280;17143;51.888;5.408;2023-04-08T03:36:53;102164.66;;;7.95;100.00
30338;BME280;17143;51.888;5.408;2023-04-08T03:51:55;102184.75;;;7.87;100.00
30338;BME280;17143;51.888;5.408;2023-04-08T04:06:57;102184.19;;;7.71;100.00
30338;BME280;17143;51.888;5.408;2023-04-08T04:21:59;102201.72;;;7.74;100.00
30338;BME280;17143;51.888;5.408;2023-04-08T04:37:01;102207.81;;;7.64;100.00
30338;BME280;17143;51.888;5.408;2023-04-08T04:52:03;102231.88;;;7.53;100.00
30338;BME280;17143;51.888;5.408;2023-04-08T05:07:06;102234.44;;;7.43;100.00
30338;BME280;17143;51.888;5.408;2023-04-08T05:22:07;102250.44;;;7.29;100.00
30338;BME280;17143;51.888;5.408;2023-04-08T05:37:10;102266.50;;;7.25;100.00
30338;BME280;17143;51.888;5.408;2023-04-08T05:52:12;102278.63;;;7.16;100.00
30338;BME280;17143;51.888;5.408;2023-04-08T06:07:14;102285.47;;;7.15;100.00
30338;BME280;17143;51.888;5.408;2023-04-08T06:22:16;102294.25;;;7.36;100.00
30338;BME280;17143;51.888;5.408;2023-04-08T06:37:18;102321.47;;;7.31;100.00
30338;BME280;17143;51.888;5.408;2023-04-08T06:52:20;102331.56;;;7.28;100.00
30338;BME280;17143;51.888;5.408;2023-04-08T07:07:22;102343.97;;;7.41;100.00
30338;BME280;17143;51.888;5.408;2023-04-08T07:22:24;102375.56;;;7.65;100.00
30338;BME280;17143;51.888;5.408;2023-04-08T07:37:26;102381.56;;;7.64;100.00
30338;BME280;17143;51.888;5.408;2023-04-08T07:52:28;102393.81;;;7.75;100.00
30338;BME280;17143;51.888;5.408;2023-04-08T08:07:31;102392.16;;;8.15;100.00
30338;BME280;17143;51.888;5.408;2023-04-08T08:22:33;102405.63;;;9.70;100.00
30338;BME280;17143;51.888;5.408;2023-04-08T08:37:35;102414.03;;;11.51;100.00
30338;BME280;17143;51.888;5.408;2023-04-08T08:52:37;102428.09;;;13.45;100.00
30338;BME280;17143;51.888;5.408;2023-04-08T09:07:39;102418.13;;;15.86;88.34
30338;BME280;17143;51.888;5.408;2023-04-08T09:22:57;102431.28;;;16.48;82.54
30338;BME280;17143;51.888;5.408;2023-04-08T09:38:00;102427.38;;;16.86;80.66
30338;BME280;17143;51.888;5.408;2023-04-08T09:53:08;102443.00;;;16.83;76.44
30338;BME280;17143;51.888;5.408;2023-04-08T10:08:11;102428.97;;;17.17;74.20
30338;BME280;17143;51.888;5.408;2023-04-08T10:23:15;102437.09;;;17.21;67.08
30338;BME280;17143;51.888;5.408;2023-04-08T10:38:17;102417.34;;;17.97;64.07
30338;BME280;17143;51.888;5.408;2023-04-08T10:53:25;102409.25;;;18.11;60.02
30338;BME280;17143;51.888;5.408;2023-04-08T11:08:28;102408.34;;;18.29;59.32
30338;BME280;17143;51.888;5.408;2023-04-08T11:23:29;102403.84;;;17.73;53.82
30338;BME280;17143;51.888;5.408;2023-04-08T11:38:31;102404.28;;;17.64;52.75
30338;BME280;17143;51.888;5.408;2023-04-08T11:53:34;102391.63;;;17.93;50.40
30338;BME280;17143;51.888;5.408;2023-04-08T12:08:36;102395.56;;;18.18;46.90
30338;BME280;17143;51.888;5.408;2023-04-08T12:23:38;102383.28;;;18.38;47.35
30338;BME280;17143;51.888;5.408;2023-04-08T12:38:40;102383.91;;;18.69;46.57
30338;BME280;17143;51.888;5.408;2023-04-08T12:53:43;102377.84;;;18.16;45.98
30338;BME280;17143;51.888;5.408;2023-04-08T13:08:45;102380.19;;;18.10;45.94
30338;BME280;17143;51.888;5.408;2023-04-08T13:23:47;102376.50;;;17.89;48.83
30338;BME280;17143;51.888;5.408;2023-04-08T13:38:49;102364.75;;;18.37;46.73
30338;BME280;17143;51.888;5.408;2023-04-08T13:53:51;102366.09;;;18.46;46.83
30338;BME280;17143;51.888;5.408;2023-04-08T14:08:53;102354.75;;;18.66;48.32
30338;BME280;17143;51.888;5.408;2023-04-08T14:23:55;102349.09;;;18.22;44.11
30338;BME280;17143;51.888;5.408;2023-04-08T14:38:57;102342.22;;;17.89;44.72
30338;BME280;17143;51.888;5.408;2023-04-08T14:53:59;102340.78;;;18.32;47.28
30338;BME280;17143;51.888;5.408;2023-04-08T15:09:01;102337.22;;;18.12;47.21
30338;BME280;17143;51.888;5.408;2023-04-08T15:24:03;102328.41;;;18.12;50.12
30338;BME280;17143;51.888;5.408;2023-04-08T15:39:06;102327.44;;;18.10;50.73
30338;BME280;17143;51.888;5.408;2023-04-08T15:54:08;102338.75;;;17.72;52.28
30338;BME280;17143;51.888;5.408;2023-04-08T16:09:10;102350.16;;;17.37;52.53
30338;BME280;17143;51.888;5.408;2023-04-08T16:24:11;102346.78;;;17.06;52.70
30338;BME280;17143;51.888;5.408;2023-04-08T16:39:14;102355.97;;;16.50;53.93
30338;BME280;17143;51.888;5.408;2023-04-08T16:54:16;102356.91;;;16.03;54.75
30338;BME280;17143;51.888;5.408;2023-04-08T17:09:18;102357.16;;;15.77;55.56
30338;BME280;17143;51.888;5.408;2023-04-08T17:24:20;102362.41;;;15.77;58.71
30338;BME280;17143;51.888;5.408;2023-04-08T17:39:22;102360.63;;;15.47;61.30
30338;BME280;17143;51.888;5.408;2023-04-08T17:54:24;102366.19;;;14.94;65.87
30338;BME280;17143;51.888;5.408;2023-04-08T18:09:26;102367.25;;;14.83;69.39
30338;BME280;17143;51.888;5.408;2023-04-08T18:24:28;102364.88;;;14.73;70.96
30338;BME280;17143;51.888;5.408;2023-04-08T18:39:31;102375.81;;;14.66;72.55
30338;BME280;17143;51.888;5.408;2023-04-08T18:54:33;102396.44;;;14.47;74.32
30338;BME280;17143;51.888;5.408;2023-04-08T19:09:35;102403.13;;;14.42;75.98
30338;BME280;17143;51.888;5.408;2023-04-08T19:24:37;102411.28;;;14.20;77.77
30338;BME280;17143;51.888;5.408;2023-04-08T19:39:39;102415.66;;;13.93;81.87
30338;BME280;17143;51.888;5.408;2023-04-08T19:54:41;102420.88;;;13.67;84.67
30338;BME280;17143;51.888;5.408;2023-04-08T20:09:43;102428.41;;;13.36;87.73
30338;BME280;17143;51.888;5.408;2023-04-08T20:24:45;102437.41;;;13.04;89.80
30338;BME280;17143;51.888;5.408;2023-04-08T20:39:48;102438.94;;;12.64;92.63
30338;BME280;17143;51.888;5.408;2023-04-08T20:54:50;102444.91;;;12.38;95.09
30338;BME280;17143;51.888;5.408;2023-04-08T21:09:52;102449.72;;;12.09;97.13
30338;BME280;17143;51.888;5.408;2023-04-08T21:24:54;102459.38;;;11.87;98.20
30338;BME280;17143;51.888;5.408;2023-04-08T21:39:55;102459.94;;;11.83;98.61
30338;BME280;17143;51.888;5.408;2023-04-08T21:54:58;102456.72;;;11.63;99.16
30338;BME280;17143;51.888;5.408;2023-04-08T22:10:00;102462.56;;;11.49;98.61
30338;BME280;17143;51.888;5.408;2023-04-08T22:25:05;102467.34;;;11.43;98.34
30338;BME280;17143;51.888;5.408;2023-04-08T22:40:09;102462.13;;;11.43;98.90
30338;BME280;17143;51.888;5.408;2023-04-08T22:55:11;102463.94;;;11.44;98.49
30338;BME280;17143;51.888;5.408;2023-04-08T23:10:13;102460.53;;;11.45;98.17
30338;BME280;17143;51.888;5.408;2023-04-08T23:25:15;102452.56;;;11.32;98.38
30338;BME280;17143;51.888;5.408;2023-04-08T23:40:17;102458.25;;;11.38;99.12
30338;BME280;17143;51.888;5.408;2023-04-08T23:55:19;102447.81;;;11.38;98.82
